ENG CAT
Escuela de Pilotos
Teléfono 972234126 972 23 41 26
 
Aerbrava - Meteorología

Información meteorológica aeronáutica

 

En este apartado aparece la información meteorológica aeronáutica que es utilizada en las prácticas de los alumnos de la Escuela de Pilotos de nuestro centro durante su formación, por lo que puede no ser actual y se debería utilizar por su propia cuenta y riesgo. AERBRAVA no se hace responsable de su uso.

 

TIEMPO ACTUAL

Satélite Meteorológico

sat24.com

Servei Meteorològic de Catalunya

 

LEGE 291730Z 18013KT 9999 FEW060 28/17 Q1011
LEGE 291700Z 19015KT 9999 FEW060 29/18 Q1011
LEGE 291630Z 19016KT 160V220 9999 FEW060 29/18 Q1011
LEGE 291600Z 18019KT 9999 FEW060 29/17 Q1012
LEGE 291530Z 19016KT 160V220 9999 FEW060 30/18 Q1012
LEGE 291500Z 18017G27KT CAVOK 31/18 Q1012
LEGE 291430Z 16014KT 120V190 CAVOK 31/18 Q1012
LEGE 291400Z 17015KT 140V200 CAVOK 30/18 Q1013
TAF LEGE 291700Z 2918/3018 18010KT 9999 FEW020 TX34/3013Z TN19/3006Z   BECMG 2918/2921 VRB04KT   PROB30   TEMPO 2918/2924 18010KT

Aviation Weather

 
Aerbrava en el facebook Aerbrava en el twitter Aerbrava instagram Aerbrava en el youtube Aerbrava tumblr Aerbrava flikr Aerbrava pinterest

¡html Vàlid! ¡CSS Vàlid!